createdAt,value
2017-12-14T00:00:48.565Z,2.43
2017-12-14T00:03:15.344Z,2.00
2017-12-14T00:05:42.079Z,2.43
2017-12-14T00:08:08.504Z,1.40
2017-12-14T00:10:34.822Z,2.80
2017-12-14T00:13:01.594Z,1.47
2017-12-14T00:15:27.935Z,1.63
2017-12-14T00:20:44.288Z,4.43
2017-12-14T00:32:19.441Z,1.37
2017-12-14T00:34:45.799Z,1.87
2017-12-14T00:37:12.531Z,1.30
2017-12-14T00:39:39.522Z,1.17
2017-12-14T00:42:05.972Z,1.03
2017-12-14T00:44:32.315Z,1.30
2017-12-14T00:46:59.640Z,1.27
2017-12-14T00:49:25.974Z,1.67
2017-12-14T00:51:53.137Z,1.20
2017-12-14T00:54:19.518Z,1.63
2017-12-14T00:56:45.987Z,1.17
2017-12-14T00:59:12.409Z,1.30
2017-12-14T01:01:38.760Z,2.43
2017-12-14T01:04:05.174Z,1.07
2017-12-14T01:06:32.447Z,2.20
2017-12-14T01:08:59.704Z,3.83
2017-12-14T01:11:28.399Z,2.60
2017-12-14T01:13:54.781Z,1.67
2017-12-14T01:16:21.011Z,1.55
2017-12-14T01:18:47.389Z,0.90
2017-12-14T01:21:13.619Z,0.90
2017-12-14T01:23:40.821Z,1.33
2017-12-14T01:26:07.235Z,1.47
2017-12-14T01:28:34.072Z,1.80
2017-12-14T01:31:00.252Z,1.50
2017-12-14T01:33:26.433Z,1.20
2017-12-14T01:35:52.644Z,1.02
2017-12-14T01:38:18.794Z,2.17
2017-12-14T01:40:45.042Z,1.42
2017-12-14T01:43:11.214Z,1.20
2017-12-14T01:45:37.410Z,1.33
2017-12-14T01:48:03.576Z,1.15
2017-12-14T01:50:30.878Z,1.73
2017-12-14T01:52:57.041Z,2.50
2017-12-14T01:55:23.223Z,2.10
2017-12-14T01:57:49.417Z,2.08
2017-12-14T02:00:15.983Z,3.55
2017-12-14T02:02:42.575Z,2.97
2017-12-14T02:05:08.760Z,1.52
2017-12-14T02:07:34.975Z,2.87
2017-12-14T02:10:01.110Z,1.13
2017-12-14T02:12:27.862Z,3.83
2017-12-14T02:14:54.856Z,2.30
2017-12-14T02:17:21.330Z,0.90
2017-12-14T02:19:47.551Z,1.30
2017-12-14T02:22:13.728Z,1.62
2017-12-14T02:24:39.919Z,1.77
2017-12-14T02:27:06.089Z,1.00
2017-12-14T02:29:32.411Z,5.60
2017-12-14T02:31:59.124Z,2.60
2017-12-14T02:34:25.340Z,2.60
2017-12-14T02:36:51.747Z,2.03
2017-12-14T02:39:18.534Z,2.17
2017-12-14T02:41:45.097Z,1.30
2017-12-14T02:44:12.058Z,3.00
2017-12-14T02:46:38.214Z,1.27
2017-12-14T02:49:04.367Z,1.10
2017-12-14T02:51:30.875Z,2.03
2017-12-14T02:53:57.003Z,1.30
2017-12-14T02:56:23.802Z,1.15
2017-12-14T02:58:49.980Z,2.53
2017-12-14T03:01:16.201Z,2.40
2017-12-14T03:13:22.374Z,1.23
2017-12-14T03:15:48.546Z,2.90
2017-12-14T03:18:15.442Z,3.03
2017-12-14T03:20:41.676Z,3.20
2017-12-14T03:23:07.895Z,1.97
2017-12-14T03:25:34.132Z,2.03
2017-12-14T03:28:00.343Z,3.75
2017-12-14T03:30:28.320Z,2.30
2017-12-14T03:32:54.558Z,1.93
2017-12-14T03:35:20.726Z,1.90
2017-12-14T03:37:46.890Z,3.00
2017-12-14T03:40:13.122Z,1.33
2017-12-14T03:42:39.854Z,2.20
2017-12-14T03:45:06.918Z,2.20
2017-12-14T03:47:33.086Z,2.87
2017-12-14T03:49:59.282Z,6.03
2017-12-14T03:52:26.133Z,7.63
2017-12-14T03:54:52.682Z,7.30
2017-12-14T03:57:18.860Z,4.30
2017-12-14T03:59:45.022Z,7.43
2017-12-14T04:02:12.166Z,2.70
2017-12-14T04:04:38.767Z,3.00
2017-12-14T04:07:05.290Z,1.85
2017-12-14T04:09:32.817Z,2.12
2017-12-14T04:11:59.044Z,1.03
2017-12-14T04:14:26.635Z,1.47
2017-12-14T04:16:52.833Z,1.10
2017-12-14T04:19:19.515Z,1.33
2017-12-14T04:31:25.775Z,0.98
2017-12-14T04:33:53.347Z,3.83
2017-12-14T04:36:19.903Z,1.17
2017-12-14T04:38:46.123Z,1.00
2017-12-14T04:41:13.420Z,1.67
2017-12-14T04:43:40.207Z,1.55
2017-12-14T04:46:08.473Z,1.35
2017-12-14T04:48:35.260Z,4.70
2017-12-14T04:51:01.621Z,4.32
2017-12-14T04:53:27.843Z,4.78
2017-12-14T04:55:54.026Z,0.70
2017-12-14T04:58:21.116Z,0.70
2017-12-14T05:00:47.396Z,3.72
2017-12-14T05:03:13.592Z,1.50
2017-12-14T05:05:39.811Z,3.28
2017-12-14T05:08:06.016Z,1.55
2017-12-14T05:10:32.247Z,4.72
2017-12-14T05:12:58.438Z,1.15
2017-12-14T05:15:24.669Z,0.57
2017-12-14T05:17:50.856Z,4.10
2017-12-14T05:20:17.258Z,2.05
2017-12-14T05:22:43.514Z,0.88
2017-12-14T05:25:09.729Z,2.50
2017-12-14T05:27:35.899Z,4.60
2017-12-14T05:30:02.240Z,3.28
2017-12-14T05:32:28.432Z,4.30
2017-12-14T05:34:54.630Z,2.87
2017-12-14T05:37:20.862Z,6.03
2017-12-14T05:39:47.146Z,9.52
2017-12-14T05:42:13.369Z,4.87
2017-12-14T05:44:40.422Z,3.25
2017-12-14T05:47:07.585Z,3.30
2017-12-14T05:49:33.846Z,3.80
2017-12-14T05:52:00.038Z,3.62
2017-12-14T05:54:26.224Z,6.07
2017-12-14T06:06:33.480Z,3.60
2017-12-14T06:09:00.573Z,7.37
2017-12-14T06:11:26.847Z,5.50
2017-12-14T06:23:34.038Z,3.80
2017-12-14T06:26:00.636Z,3.78
2017-12-14T06:28:27.117Z,6.05
2017-12-14T06:30:53.860Z,7.35
2017-12-14T06:33:20.696Z,7.07
2017-12-14T06:35:46.927Z,5.37
2017-12-14T06:38:27.314Z,7.75
2017-12-14T06:40:54.738Z,7.37
2017-12-14T06:43:21.212Z,4.45
2017-12-14T06:45:47.733Z,6.82
2017-12-14T06:48:14.269Z,8.65
2017-12-14T06:50:40.805Z,4.82
2017-12-14T06:53:07.370Z,7.70
2017-12-14T06:55:35.148Z,5.93
2017-12-14T06:58:01.807Z,7.60
2017-12-14T07:00:28.072Z,6.68
2017-12-14T07:03:06.720Z,6.35
2017-12-14T07:05:32.928Z,7.50
2017-12-14T07:08:00.250Z,8.23
2017-12-14T07:10:26.453Z,7.97
2017-12-14T07:12:53.626Z,8.20
2017-12-14T07:15:19.873Z,7.93
2017-12-14T07:17:46.104Z,7.03
2017-12-14T07:20:13.149Z,6.95
2017-12-14T07:22:39.456Z,6.82
2017-12-14T07:25:07.217Z,7.78
2017-12-14T07:27:33.587Z,6.75
2017-12-14T07:30:00.929Z,9.07
2017-12-14T07:32:27.195Z,6.93
2017-12-14T07:34:53.394Z,11.60
2017-12-14T07:37:19.565Z,9.07
2017-12-14T07:39:47.905Z,8.30
2017-12-14T07:42:26.354Z,7.90
2017-12-14T07:45:04.577Z,8.00
2017-12-14T07:47:30.765Z,5.05
2017-12-14T07:49:57.080Z,7.78
2017-12-14T07:52:23.380Z,10.50
2017-12-14T07:54:49.688Z,7.55
2017-12-14T07:57:15.890Z,10.18
2017-12-14T07:59:42.083Z,11.40
2017-12-14T08:02:08.340Z,5.97
2017-12-14T08:04:34.551Z,6.73
2017-12-14T08:07:00.751Z,6.05
2017-12-14T08:12:20.122Z,2.50
2017-12-14T08:14:46.349Z,5.10
2017-12-14T08:17:13.082Z,11.07
2017-12-14T08:19:39.260Z,9.27
2017-12-14T08:22:05.476Z,7.67
2017-12-14T08:24:31.704Z,7.27
2017-12-14T08:26:57.886Z,12.53
2017-12-14T08:29:24.132Z,7.60
2017-12-14T08:31:50.490Z,10.67
2017-12-14T08:34:16.677Z,6.43
2017-12-14T08:36:42.883Z,7.95
2017-12-14T08:39:09.103Z,15.17
2017-12-14T08:41:36.149Z,6.87
2017-12-14T08:44:02.345Z,11.03
2017-12-14T08:46:28.642Z,4.93
2017-12-14T08:48:54.901Z,9.87
2017-12-14T08:51:21.159Z,13.37
2017-12-14T08:53:47.361Z,9.10
2017-12-14T08:56:14.321Z,9.53
2017-12-14T08:58:40.541Z,11.53
2017-12-14T09:01:06.792Z,9.40
2017-12-14T09:03:33.381Z,7.87
2017-12-14T09:05:59.601Z,6.87
2017-12-14T09:08:25.775Z,6.07
2017-12-14T09:10:51.972Z,3.40
2017-12-14T09:13:18.187Z,6.80
2017-12-14T09:15:44.413Z,5.13
2017-12-14T09:18:10.613Z,7.53
2017-12-14T09:20:36.821Z,4.93
2017-12-14T09:23:03.021Z,10.80
2017-12-14T09:25:29.293Z,4.57
2017-12-14T09:27:55.512Z,7.93
2017-12-14T09:30:21.695Z,7.17
2017-12-14T09:32:48.653Z,8.70
2017-12-14T09:35:14.834Z,8.73
2017-12-14T09:37:41.102Z,7.23
2017-12-14T09:40:07.966Z,7.37
2017-12-14T09:42:34.187Z,8.60
2017-12-14T09:45:00.392Z,10.83
2017-12-14T09:47:27.293Z,10.50
2017-12-14T09:49:53.505Z,4.97
2017-12-14T09:52:19.737Z,7.13
2017-12-14T09:54:45.923Z,12.30
2017-12-14T09:57:12.179Z,8.57
2017-12-14T09:59:38.390Z,11.30
2017-12-14T10:02:04.843Z,9.73
2017-12-14T10:04:31.052Z,9.57
2017-12-14T10:06:57.245Z,12.50
2017-12-14T10:09:24.078Z,3.60
2017-12-14T10:11:50.328Z,10.93
2017-12-14T10:14:16.562Z,7.90
2017-12-14T10:16:43.492Z,12.23
2017-12-14T10:19:10.099Z,13.20
2017-12-14T10:21:36.253Z,14.27
2017-12-14T10:24:03.398Z,9.23
2017-12-14T10:26:29.670Z,5.60
2017-12-14T10:28:55.875Z,8.80
2017-12-14T10:31:22.102Z,9.70
2017-12-14T10:33:48.346Z,6.37
2017-12-14T10:36:14.525Z,12.43
2017-12-14T10:38:40.718Z,8.50
2017-12-14T10:41:06.931Z,12.93
2017-12-14T10:43:33.162Z,10.07
2017-12-14T10:46:00.882Z,10.30
2017-12-14T10:48:27.090Z,14.47
2017-12-14T10:50:53.270Z,9.90
2017-12-14T10:53:19.506Z,16.40
2017-12-14T10:55:45.772Z,9.90
2017-12-14T10:58:12.081Z,11.83
2017-12-14T11:00:44.308Z,9.03
2017-12-14T11:03:10.558Z,12.13
2017-12-14T11:05:36.766Z,12.40
2017-12-14T11:08:02.950Z,12.90
2017-12-14T11:10:29.134Z,9.20
2017-12-14T11:12:55.380Z,11.57
2017-12-14T11:15:21.557Z,9.67
2017-12-14T11:17:47.735Z,13.30
2017-12-14T11:20:13.929Z,15.07
2017-12-14T11:22:40.418Z,10.80
2017-12-14T11:25:06.623Z,11.60
2017-12-14T11:27:32.859Z,9.80
2017-12-14T11:29:59.097Z,13.50
2017-12-14T11:32:25.296Z,8.40
2017-12-14T11:34:51.502Z,13.70
2017-12-14T11:37:19.130Z,14.33
2017-12-14T11:39:45.318Z,11.83
2017-12-14T11:42:11.805Z,15.70
2017-12-14T11:44:38.025Z,15.03
2017-12-14T11:47:04.205Z,10.87
2017-12-14T11:49:30.390Z,15.30
2017-12-14T11:51:57.354Z,14.50
2017-12-14T11:54:23.578Z,19.03
2017-12-14T11:56:50.514Z,11.57
2017-12-14T11:59:16.982Z,13.93
2017-12-14T12:01:43.181Z,15.20
2017-12-14T12:04:09.363Z,8.63
2017-12-14T12:06:35.558Z,17.83
2017-12-14T12:09:01.827Z,14.40
2017-12-14T12:11:28.049Z,13.00
2017-12-14T12:13:54.301Z,12.20
2017-12-14T12:16:20.512Z,8.83
2017-12-14T12:18:46.687Z,7.07
2017-12-14T12:21:13.614Z,9.97
2017-12-14T12:23:39.808Z,8.00
2017-12-14T12:26:06.136Z,6.53
2017-12-14T12:28:32.304Z,9.23
2017-12-14T12:30:58.469Z,12.80
2017-12-14T12:33:24.643Z,3.27
2017-12-14T12:35:50.928Z,5.50
2017-12-14T12:38:17.158Z,6.33
2017-12-14T12:40:43.407Z,2.77
2017-12-14T12:43:09.598Z,10.17
2017-12-14T12:45:35.867Z,3.07
2017-12-14T12:48:03.134Z,15.57
2017-12-14T12:50:29.373Z,6.80
2017-12-14T12:52:56.211Z,8.70
2017-12-14T12:55:22.426Z,10.30
2017-12-14T12:57:48.613Z,6.50
2017-12-14T13:00:15.607Z,7.40
2017-12-14T13:02:41.806Z,6.70
2017-12-14T13:05:08.019Z,8.53
2017-12-14T13:07:35.173Z,9.90
2017-12-14T13:10:01.416Z,9.60
2017-12-14T13:12:27.643Z,8.23
2017-12-14T13:14:53.873Z,6.20
2017-12-14T13:17:20.049Z,7.57
2017-12-14T13:19:47.544Z,13.27
2017-12-14T13:22:13.758Z,13.13
2017-12-14T13:24:40.009Z,8.07
2017-12-14T13:27:06.295Z,8.50
2017-12-14T13:29:32.478Z,7.03
2017-12-14T13:31:58.683Z,9.13
2017-12-14T13:34:25.604Z,13.63
2017-12-14T13:36:51.815Z,12.20
2017-12-14T13:39:18.842Z,8.20
2017-12-14T13:41:45.068Z,19.63
2017-12-14T13:44:11.267Z,9.00
2017-12-14T13:46:37.538Z,16.17
2017-12-14T13:49:03.730Z,10.10
2017-12-14T13:51:30.328Z,11.97
2017-12-14T13:53:56.538Z,9.60
2017-12-14T13:56:22.739Z,8.40
2017-12-14T13:58:51.070Z,11.60
2017-12-14T14:01:17.235Z,8.93
2017-12-14T14:03:44.574Z,11.47
2017-12-14T14:06:10.748Z,17.20
2017-12-14T14:08:36.964Z,9.30
2017-12-14T14:13:52.157Z,10.23
2017-12-14T14:16:18.461Z,11.70
2017-12-14T14:18:44.676Z,11.37
2017-12-14T14:21:10.894Z,9.77
2017-12-14T14:23:38.059Z,13.20
2017-12-14T14:26:05.004Z,18.30
2017-12-14T14:28:31.193Z,10.43
2017-12-14T14:30:57.451Z,7.77
2017-12-14T14:33:23.702Z,10.37
2017-12-14T14:35:49.936Z,16.03
2017-12-14T14:38:16.106Z,9.50
2017-12-14T14:40:43.060Z,8.23
2017-12-14T14:43:09.744Z,7.97
2017-12-14T14:45:37.288Z,14.57
2017-12-14T14:48:03.609Z,11.63
2017-12-14T14:50:29.795Z,11.40
2017-12-14T14:52:56.358Z,8.17
2017-12-14T14:55:22.663Z,12.30
2017-12-14T14:57:49.286Z,12.33
2017-12-14T15:00:15.508Z,15.33
2017-12-14T15:02:42.560Z,7.73
2017-12-14T15:05:08.763Z,11.57
2017-12-14T15:07:34.971Z,10.87
2017-12-14T15:10:01.140Z,11.17
2017-12-14T15:12:27.291Z,5.23
2017-12-14T15:14:53.482Z,8.27
2017-12-14T15:17:19.634Z,10.57
2017-12-14T15:19:45.823Z,14.77
2017-12-14T15:22:12.053Z,12.70
2017-12-14T15:24:38.248Z,10.47
2017-12-14T15:27:04.506Z,8.50
2017-12-14T15:29:31.602Z,11.02
2017-12-14T15:31:58.627Z,10.57
2017-12-14T15:34:25.571Z,10.40
2017-12-14T15:36:51.731Z,10.30
2017-12-14T15:48:57.961Z,11.77
2017-12-14T15:51:24.175Z,10.60
2017-12-14T15:53:50.394Z,10.20
2017-12-14T15:56:17.452Z,10.30
2017-12-14T15:58:43.654Z,6.70
2017-12-14T16:01:09.825Z,5.73
2017-12-14T16:03:35.999Z,5.13
2017-12-14T16:06:02.425Z,12.67
2017-12-14T16:08:28.616Z,6.17
2017-12-14T16:10:55.519Z,7.60
2017-12-14T16:13:21.701Z,5.50
2017-12-14T16:15:47.911Z,4.70
2017-12-14T16:18:14.123Z,6.83
2017-12-14T16:20:40.323Z,6.40
2017-12-14T16:23:06.504Z,4.20
2017-12-14T16:25:32.722Z,9.40
2017-12-14T16:27:58.922Z,6.77
2017-12-14T16:30:25.798Z,4.97
2017-12-14T16:32:52.003Z,9.83
2017-12-14T16:35:18.198Z,6.03
2017-12-14T16:37:44.437Z,6.00
2017-12-14T16:40:10.669Z,7.70
2017-12-14T16:42:36.872Z,9.30
2017-12-14T16:45:03.832Z,6.70
2017-12-14T16:47:30.672Z,2.57
2017-12-14T16:59:36.912Z,9.20
2017-12-14T17:02:03.485Z,5.10
2017-12-14T17:04:29.637Z,6.30
2017-12-14T17:06:55.939Z,5.77
2017-12-14T17:09:22.122Z,5.27
2017-12-14T17:11:49.126Z,6.23
2017-12-14T17:14:15.334Z,4.17
2017-12-14T17:16:41.536Z,4.50
2017-12-14T17:19:07.786Z,6.17
2017-12-14T17:21:35.524Z,3.83
2017-12-14T17:24:16.713Z,3.77
2017-12-14T17:26:44.355Z,3.90
2017-12-14T17:29:10.882Z,4.77
2017-12-14T17:31:37.171Z,6.30
2017-12-14T17:34:03.488Z,4.03
2017-12-14T17:36:42.876Z,10.03
2017-12-14T17:39:09.321Z,4.07
2017-12-14T17:41:35.494Z,13.13
2017-12-14T17:44:01.766Z,4.93
2017-12-14T17:46:28.205Z,4.73
2017-12-14T17:48:55.419Z,5.53
2017-12-14T17:51:21.670Z,8.70
2017-12-14T17:53:47.954Z,9.20
2017-12-14T17:56:14.174Z,5.70
2017-12-14T17:58:41.394Z,7.40
2017-12-14T18:01:07.659Z,9.37
2017-12-14T18:03:33.897Z,13.97
2017-12-14T18:06:00.097Z,14.43
2017-12-14T18:08:26.301Z,10.27
2017-12-14T18:10:53.260Z,13.33
2017-12-14T19:29:15.666Z,16.70
2017-12-14T19:31:42.601Z,16.67
2017-12-14T19:34:09.662Z,10.70
2017-12-14T19:36:35.882Z,22.80
2017-12-14T19:39:02.137Z,11.30
2017-12-14T19:41:28.340Z,13.67
2017-12-14T19:43:54.639Z,22.23
2017-12-14T19:46:20.911Z,26.03
2017-12-14T19:48:47.851Z,22.27
2017-12-14T19:51:14.339Z,26.13
2017-12-14T19:53:41.398Z,14.27
2017-12-14T19:56:08.391Z,18.83
2017-12-14T19:58:34.641Z,12.63
2017-12-14T20:01:00.968Z,12.23
2017-12-14T20:03:27.514Z,14.53
2017-12-14T20:05:53.723Z,8.50
2017-12-14T20:08:20.987Z,13.57
2017-12-14T20:10:47.361Z,8.50
2017-12-14T20:13:13.649Z,8.53
2017-12-14T20:15:39.864Z,9.67
2017-12-14T20:18:06.290Z,17.83
2017-12-14T20:20:32.510Z,11.23
2017-12-14T20:22:58.767Z,9.30
2017-12-14T20:25:25.946Z,14.93
2017-12-14T20:27:52.209Z,5.63
2017-12-14T20:30:18.476Z,5.97
2017-12-14T20:32:44.733Z,7.27
2017-12-14T20:35:11.766Z,8.07
2017-12-14T20:37:38.370Z,5.20
2017-12-14T20:40:04.588Z,5.87
2017-12-14T20:42:30.884Z,5.03
2017-12-14T20:44:57.127Z,5.50
2017-12-14T20:47:23.335Z,6.43
2017-12-14T20:49:50.483Z,7.27
2017-12-14T20:52:17.578Z,8.97
2017-12-14T20:54:43.852Z,6.20
2017-12-14T20:57:10.317Z,7.50
2017-12-14T20:59:36.555Z,9.07
2017-12-14T21:02:02.822Z,6.00
2017-12-14T21:04:29.098Z,8.40
2017-12-14T21:06:55.606Z,6.43
2017-12-14T21:09:21.864Z,5.40
2017-12-14T21:11:48.123Z,6.73
2017-12-14T21:14:14.342Z,4.67
2017-12-14T21:16:40.545Z,5.53
2017-12-14T21:19:07.575Z,7.63
2017-12-14T21:21:33.842Z,5.47
2017-12-14T21:24:00.091Z,6.43
2017-12-14T21:26:26.277Z,6.60
2017-12-14T21:28:53.700Z,5.33
2017-12-14T21:31:21.219Z,4.87
2017-12-14T21:33:47.675Z,5.93
2017-12-14T21:36:14.531Z,4.80
2017-12-14T21:38:41.006Z,3.97
2017-12-14T21:41:07.210Z,8.03
2017-12-14T21:43:33.500Z,5.80
2017-12-14T21:45:59.741Z,8.23
2017-12-14T21:48:26.734Z,5.13
2017-12-14T21:50:52.984Z,6.87
2017-12-14T21:53:19.588Z,4.77
2017-12-14T21:55:45.836Z,6.10
2017-12-14T21:58:12.050Z,5.70
2017-12-14T22:00:38.487Z,5.20
2017-12-14T22:03:04.741Z,6.87
2017-12-14T22:05:31.974Z,8.30
2017-12-14T22:07:58.583Z,3.60
2017-12-14T22:10:24.919Z,3.50
2017-12-14T22:12:51.101Z,5.13
2017-12-14T22:15:17.638Z,4.83
2017-12-14T22:17:43.842Z,6.10
2017-12-14T22:20:10.053Z,6.87
2017-12-14T22:22:37.439Z,4.30
2017-12-14T22:25:03.665Z,6.80
2017-12-14T22:27:30.633Z,5.90
2017-12-14T22:29:57.032Z,4.73
2017-12-14T22:32:24.013Z,4.05
2017-12-14T22:34:50.262Z,5.20
2017-12-14T22:37:16.917Z,6.13
2017-12-14T22:39:43.170Z,7.70
2017-12-14T22:42:09.415Z,4.70
2017-12-14T22:44:35.610Z,6.40
2017-12-14T22:47:01.840Z,5.63
2017-12-14T22:49:28.114Z,4.60
2017-12-14T22:51:54.344Z,3.87
2017-12-14T22:54:20.615Z,4.73
2017-12-14T22:56:46.790Z,5.40
2017-12-14T22:59:13.007Z,5.60
2017-12-14T23:01:39.251Z,6.57
2017-12-14T23:04:07.530Z,4.83
2017-12-14T23:06:33.791Z,7.30
2017-12-14T23:09:00.013Z,4.10
2017-12-14T23:11:26.252Z,8.47
2017-12-14T23:13:52.571Z,6.90
2017-12-14T23:16:18.820Z,4.40
2017-12-14T23:18:45.097Z,7.10
2017-12-14T23:21:11.268Z,8.40
2017-12-14T23:23:38.192Z,6.50
2017-12-14T23:26:04.416Z,8.10
2017-12-14T23:28:30.666Z,6.93
2017-12-14T23:30:57.083Z,7.20
2017-12-14T23:33:23.315Z,6.97
2017-12-14T23:35:49.520Z,8.10
2017-12-14T23:38:15.762Z,9.73
2017-12-14T23:40:42.910Z,10.73
2017-12-14T23:43:10.443Z,12.10
2017-12-14T23:45:36.649Z,6.87
2017-12-14T23:48:04.366Z,9.17
2017-12-14T23:50:30.643Z,9.87
2017-12-14T23:52:56.824Z,6.77
2017-12-14T23:55:23.144Z,10.90
2017-12-14T23:57:49.323Z,12.23
